GreenTxt   -   no warnings

Nearby METAR Reports

 

ENZV - Stavanger
Päivitetty: 20/08/2018 20:50
Puolipilvistä
Puolipilvistä
 Tuulen suunta LU
Tuuli: LU 13 km/h
Lämpötila: 14°C
Kastepiste: 8°C
Kosteus: 67%
Ilmanpaine: 1018 hPa
Clouds: Puolipilvistä
Visibility: 10 km
2018/08/20 18:50 ENZV 201850Z 31007KT 9999 FEW030 SCT070 14/08 Q1018 NOSIG
ENBR - Bergen
Päivitetty: 20/08/2018 20:50
Enimmäkseen pilvistä
Enimmäkseen pilvistä
 Tuulen suunta LU
Tuuli: LU 9 km/h
Lämpötila: 13°C
Kastepiste: 8°C
Kosteus: 72%
Ilmanpaine: 1017 hPa
Clouds: Enimmäkseen pilvistä
Visibility: 10 km
2018/08/20 18:50 ENBR 201850Z 32005KT 300V360 9999 FEW030 BKN053 13/08 Q1017 NOSIG RMK WIND 1200FT 33005KT
 
ENHD - Haugesund
Päivitetty: 20/08/2018 20:50
Enimmäkseen pilvistä
Enimmäkseen pilvistä
 Tuulen suunta LLU
Tuuli: LLU 15 km/h
Lämpötila: 14°C
Kastepiste: 9°C
Kosteus: 72%
Ilmanpaine: 1018 hPa
Clouds: Enimmäkseen pilvistä
Visibility: 10 km
2018/08/20 18:50 ENHD 201850Z 30008KT 9999 SCT025 BKN060 14/09 Q1018
ENCN - Kristiansand
Päivitetty: 20/08/2018 20:50
Selkeätä
Selkeätä
 Tuulen suunta PLU
Tuuli: PLU 11 km/h
Lämpötila: 17°C
Kastepiste: 4°C
Kosteus: 42%
Ilmanpaine: 1015 hPa
Yhteenveto: Selkeätä
Visibility: greater than 10 km
2018/08/20 18:50 ENCN 201850Z 33006KT 290V030 CAVOK 17/04 Q1015
 
ENBO - Bodø
Päivitetty: 20/08/2018 20:50
Nearby showers, partly cloudy
Nearby showers, partly cloudy
 Tuulen suunta L
Tuuli: L 30 km/h
Lämpötila: 9°C
Wind Chill: 5°C
Kastepiste: 7°C
Kosteus: 87%
Ilmanpaine: 1007 hPa
Yhteenveto: Nearby showers
Clouds: Puolipilvistä
Visibility: 10 km
2018/08/20 18:50 ENBO 201850Z 27016KT 9999 VCSH FEW014TCU SCT020 09/07 Q1007 NOSIG
ENKR - Kirkenes
Päivitetty: 20/08/2018 20:50
Enimmäkseen pilvistä
Enimmäkseen pilvistä
 Tuulen suunta LLU
Tuuli: LLU 6 km/h
Lämpötila: 9°C
Kastepiste: 6°C
Kosteus: 82%
Ilmanpaine: 1001 hPa
Clouds: Enimmäkseen pilvistä
Visibility: 10 km
2018/08/20 18:50 ENKR 201850Z 29003KT 9999 FEW023 BKN031 09/06 Q1001 RMK WIND 731FT VRB03KT
 
ENVA - Trondheim
Päivitetty: 20/08/2018 20:50
Rain, mostly cloudy
Rain, mostly cloudy
 Tuulen suunta L
Tuuli: L 20 km/h
Lämpötila: 11°C
Kastepiste: 9°C
Kosteus: 88%
Ilmanpaine: 1013 hPa
Yhteenveto: Sade
Clouds: Enimmäkseen pilvistä
Visibility: 8 km
2018/08/20 18:50 ENVA 201850Z 26011KT 8000 RA FEW010 SCT018 BKN035 11/09 Q1013 TEMPO SHRA RMK WIND 670FT 27013KT
ENGM - Oslo
Päivitetty: 20/08/2018 20:50
Selkeätä
Selkeätä
 Tuulen suunta PKO
Tuuli: PKO 6 km/h
Lämpötila: 13°C
Kastepiste: 6°C
Kosteus: 63%
Ilmanpaine: 1012 hPa
Yhteenveto: Selkeätä
Visibility: greater than 10 km
2018/08/20 18:50 ENGM 201850Z 02003KT 350V050 CAVOK 13/06 Q1012 NOSIG